Time;durP1;ratioP1;P1;durP2;ratioP2;P2;SDS_P1;SDS_P2;PMS_P1;PMS_P2;Temp;Humidity;BMP_temperature;BMP_pressure;BME280_temperature;BME280_humidity;BME280_pressure;Samples;Min_cycle;Max_cycle;Signal;HPM_P1;HPM_P2
2023/06/22 00:02:21;;;;;;;7.13;4.47;;;21.80;1.00;;;;;;5075836;28;20205;-85
2023/06/22 00:04:47;;;;;;;7.03;4.27;;;21.80;1.00;;;;;;5075659;28;20165;-80
2023/06/22 00:07:18;;;;;;;7.27;4.80;;;21.90;1.00;;;;;;5066406;28;20232;-85
2023/06/22 00:09:47;;;;;;;7.37;4.97;;;21.90;1.00;;;;;;5064584;28;20610;-85
2023/06/22 00:12:25;;;;;;;7.33;5.33;;;21.90;1.00;;;;;;5058240;28;20165;-84
2023/06/22 00:18:13;;;;;;;6.60;5.50;;;21.70;1.00;;;;;;5055485;28;20256;-86
2023/06/22 00:20:39;;;;;;;5.27;4.77;;;21.60;1.00;;;;;;5060322;28;20181;-84
2023/06/22 00:23:08;;;;;;;7.70;5.10;;;21.60;1.00;;;;;;5077448;28;20242;-84
2023/06/22 00:25:39;;;;;;;6.63;5.10;;;21.60;1.00;;;;;;5059370;28;20212;-82
2023/06/22 00:28:06;;;;;;;6.63;5.13;;;21.60;1.00;;;;;;5059194;28;20179;-82
2023/06/22 00:30:37;;;;;;;6.87;4.90;;;21.70;1.00;;;;;;5058080;28;20675;-83
2023/06/22 00:33:07;;;;;;;8.13;5.10;;;21.70;1.00;;;;;;5055622;28;20161;-85
2023/06/22 00:35:33;;;;;;;6.63;5.03;;;21.70;1.00;;;;;;5055563;28;20198;-86
2023/06/22 00:38:00;;;;;;;7.57;5.13;;;21.60;1.00;;;;;;5055875;28;20234;-86
2023/06/22 00:40:33;;;;;;;9.63;5.70;;;21.60;1.00;;;;;;5055946;28;20246;-87
2023/06/22 00:43:00;;;;;;;7.63;5.30;;;21.60;1.00;;;;;;5055330;28;20163;-87
2023/06/22 00:45:26;;;;;;;11.63;5.57;;;21.60;1.00;;;;;;5055420;28;20167;-85
2023/06/22 00:47:57;;;;;;;8.70;5.10;;;21.70;1.00;;;;;;5077182;28;20185;-84
2023/06/22 00:50:25;;;;;;;7.70;5.60;;;21.60;1.00;;;;;;5076983;28;20162;-83
2023/06/22 00:52:53;;;;;;;7.50;5.90;;;21.70;1.00;;;;;;5076559;28;20242;-81
2023/06/22 00:55:22;;;;;;;6.47;5.20;;;21.70;1.00;;;;;;5070005;28;20208;-87
2023/06/22 01:01:10;;;;;;;9.23;6.07;;;21.60;1.00;;;;;;5056789;28;20211;-85
2023/06/22 01:03:36;;;;;;;8.37;5.10;;;21.60;1.00;;;;;;5055853;28;20169;-87
2023/06/22 01:06:09;;;;;;;6.10;4.60;;;21.70;1.00;;;;;;5036626;28;20550;-87
2023/06/22 01:08:51;;;;;;;6.50;5.37;;;21.70;1.00;;;;;;5037446;28;20223;-87
2023/06/22 01:11:32;;;;;;;6.47;4.70;;;21.70;1.00;;;;;;5055629;28;20161;-85
2023/06/22 01:14:05;;;;;;;8.10;5.17;;;21.70;1.00;;;;;;5055111;28;20161;-87
2023/06/22 01:16:33;;;;;;;8.33;5.13;;;21.60;1.00;;;;;;5054745;28;20267;-85
2023/06/22 01:19:14;;;;;;;8.23;5.37;;;21.60;1.00;;;;;;5037857;28;20167;-85
2023/06/22 01:21:40;;;;;;;9.57;5.47;;;21.60;1.00;;;;;;5055551;28;20244;-85
2023/06/22 01:24:24;;;;;;;7.90;5.20;;;21.70;1.00;;;;;;5055079;28;20174;-88
2023/06/22 01:27:26;;;;;;;7.03;5.50;;;21.70;1.00;;;;;;5055201;28;20257;-87
2023/06/22 01:30:00;;;;;;;9.80;5.60;;;21.60;1.00;;;;;;5057456;28;20173;-86
2023/06/22 01:32:32;;;;;;;7.53;5.27;;;21.40;1.00;;;;;;5057980;28;20169;-86
2023/06/22 01:35:00;;;;;;;7.90;5.40;;;21.40;1.00;;;;;;5057439;28;20188;-85
2023/06/22 01:37:28;;;;;;;8.23;5.27;;;21.40;1.00;;;;;;5038978;28;20170;-86
2023/06/22 01:39:55;;;;;;;7.97;5.37;;;21.40;1.00;;;;;;5039191;28;20321;-85
2023/06/22 01:42:23;;;;;;;6.60;4.90;;;21.40;1.00;;;;;;5058914;28;20196;-86
2023/06/22 01:44:50;;;;;;;5.63;4.43;;;21.30;1.00;;;;;;5058196;28;20201;-83
2023/06/22 01:47:17;;;;;;;8.13;5.20;;;21.30;1.00;;;;;;5039339;28;20166;-86
2023/06/22 01:49:43;;;;;;;7.93;5.40;;;21.40;1.00;;;;;;5056024;28;20219;-87
2023/06/22 01:52:10;;;;;;;7.73;4.73;;;21.40;1.00;;;;;;5057782;28;20175;-81
2023/06/22 01:54:39;;;;;;;7.00;4.60;;;21.30;1.00;;;;;;5056504;28;20202;-87
2023/06/22 01:57:05;;;;;;;6.43;4.20;;;21.30;1.00;;;;;;5057297;28;20167;-87
2023/06/22 01:59:55;;;;;;;6.03;4.57;;;21.30;1.00;;;;;;5057376;28;20228;-80
2023/06/22 02:02:26;;;;;;;7.80;5.20;;;21.30;1.00;;;;;;5056716;28;20287;-84
2023/06/22 02:05:15;;;;;;;6.87;4.87;;;21.20;1.00;;;;;;5057352;28;20162;-85
2023/06/22 02:07:46;;;;;;;7.27;4.60;;;21.20;1.00;;;;;;5057316;28;20183;-85
2023/06/22 02:10:15;;;;;;;6.40;4.97;;;21.20;1.00;;;;;;5039370;28;20187;-86
2023/06/22 02:12:43;;;;;;;11.20;4.73;;;21.20;1.00;;;;;;5057387;28;20507;-86
2023/06/22 02:15:10;;;;;;;8.20;4.90;;;21.20;1.00;;;;;;5058149;28;20720;-85
2023/06/22 02:17:36;;;;;;;5.80;4.67;;;21.20;1.00;;;;;;5058256;28;20179;-85
2023/06/22 02:20:08;;;;;;;7.50;4.60;;;21.20;1.00;;;;;;5057009;28;20485;-85
2023/06/22 02:22:34;;;;;;;6.63;4.87;;;21.20;1.00;;;;;;5058727;28;20173;-87
2023/06/22 02:25:01;;;;;;;7.20;5.30;;;21.10;1.00;;;;;;5042698;28;20200;-83
2023/06/22 02:27:26;;;;;;;7.03;5.00;;;21.00;1.00;;;;;;5041832;28;20240;-84
2023/06/22 02:29:52;;;;;;;7.50;4.93;;;21.00;1.00;;;;;;5058585;28;20274;-86
2023/06/22 02:32:18;;;;;;;7.80;5.80;;;21.00;1.00;;;;;;5041014;28;20180;-85
2023/06/22 02:34:47;;;;;;;7.53;5.50;;;21.00;1.00;;;;;;5060048;28;20207;-85
2023/06/22 02:37:14;;;;;;;8.33;5.27;;;21.00;1.00;;;;;;5042059;28;20179;-86
2023/06/22 02:39:40;;;;;;;9.33;5.50;;;21.00;1.00;;;;;;5059770;28;20666;-85
2023/06/22 02:42:06;;;;;;;7.07;4.73;;;21.00;1.00;;;;;;5058996;28;20213;-84
2023/06/22 02:44:31;;;;;;;6.80;5.03;;;21.00;1.00;;;;;;5067308;28;20884;-85
2023/06/22 02:47:00;;;;;;;10.30;5.60;;;20.90;1.00;;;;;;5070190;28;20628;-81
2023/06/22 02:49:41;;;;;;;7.30;5.30;;;20.80;1.00;;;;;;5065865;28;20157;-84
2023/06/22 02:52:23;;;;;;;10.17;5.77;;;20.80;1.00;;;;;;5059880;28;20176;-88
2023/06/22 02:54:53;;;;;;;7.37;5.33;;;20.80;1.00;;;;;;5039054;28;20219;-85
2023/06/22 02:57:18;;;;;;;7.90;6.07;;;20.70;1.00;;;;;;5056555;28;20683;-86
2023/06/22 02:59:44;;;;;;;7.90;5.87;;;20.70;1.00;;;;;;5055220;28;20179;-86
2023/06/22 03:02:11;;;;;;;6.90;5.57;;;20.70;1.00;;;;;;5055676;28;20270;-85
2023/06/22 03:04:36;;;;;;;8.43;5.77;;;20.70;1.00;;;;;;5036521;28;20176;-87
2023/06/22 03:07:02;;;;;;;10.37;5.80;;;20.80;1.00;;;;;;5056074;28;20538;-85
2023/06/22 03:09:28;;;;;;;7.80;5.90;;;20.70;1.00;;;;;;5055398;28;20183;-84
2023/06/22 03:11:54;;;;;;;7.57;5.77;;;20.70;1.00;;;;;;5056079;28;20156;-87
2023/06/22 03:14:20;;;;;;;9.70;6.00;;;20.70;1.00;;;;;;5056624;28;20196;-86
2023/06/22 03:16:46;;;;;;;7.60;5.63;;;20.70;1.00;;;;;;5055776;28;20266;-85
2023/06/22 03:19:12;;;;;;;10.00;6.33;;;20.70;1.00;;;;;;5056911;28;20180;-86
2023/06/22 03:21:40;;;;;;;9.23;6.43;;;20.70;1.00;;;;;;5055942;28;20729;-84
2023/06/22 03:24:09;;;;;;;7.93;5.83;;;20.60;1.00;;;;;;5055603;28;20173;-86
2023/06/22 03:26:35;;;;;;;8.17;5.83;;;20.50;1.00;;;;;;5036927;28;20214;-86
2023/06/22 03:29:01;;;;;;;7.80;5.80;;;20.30;1.00;;;;;;5060704;28;20161;-85
2023/06/22 03:31:27;;;;;;;9.40;6.50;;;20.30;1.00;;;;;;5054912;28;20171;-86
2023/06/22 03:33:53;;;;;;;8.83;6.10;;;20.20;1.00;;;;;;5058814;28;20167;-84
2023/06/22 03:36:19;;;;;;;9.97;7.10;;;20.10;1.00;;;;;;5060588;28;20576;-84
2023/06/22 03:38:48;;;;;;;10.50;6.67;;;20.20;1.00;;;;;;5056686;28;20654;-85
2023/06/22 03:41:14;;;;;;;9.27;6.37;;;20.30;1.00;;;;;;5054709;28;20273;-84
2023/06/22 03:43:40;;;;;;;8.40;6.30;;;20.30;1.00;;;;;;5053979;28;20340;-87
2023/06/22 03:46:06;;;;;;;9.40;6.00;;;20.30;1.00;;;;;;5070894;28;20199;-81
2023/06/22 03:48:32;;;;;;;9.77;6.57;;;20.30;1.00;;;;;;5057045;28;20198;-87
2023/06/22 03:50:59;;;;;;;7.77;6.13;;;20.30;1.00;;;;;;5059976;28;20185;-85
2023/06/22 03:53:26;;;;;;;10.57;6.37;;;20.30;1.00;;;;;;5039925;28;20718;-84
2023/06/22 03:56:11;;;;;;;8.73;6.80;;;20.30;1.00;;;;;;5038083;28;20222;-85
2023/06/22 03:58:42;;;;;;;9.67;6.80;;;20.30;1.00;;;;;;5055215;28;20241;-85
2023/06/22 04:01:11;;;;;;;8.97;6.50;;;20.40;1.00;;;;;;5055419;28;20195;-85
2023/06/22 04:03:37;;;;;;;9.40;7.00;;;20.30;1.00;;;;;;5055382;28;20586;-86
2023/06/22 04:06:03;;;;;;;12.13;8.03;;;20.30;1.00;;;;;;5036855;28;20315;-86
2023/06/22 04:08:30;;;;;;;8.53;7.30;;;20.30;1.00;;;;;;5063174;28;20184;-83
2023/06/22 04:10:56;;;;;;;9.80;7.70;;;20.20;1.00;;;;;;5077963;28;20168;-84
2023/06/22 04:13:22;;;;;;;11.50;8.00;;;20.20;1.00;;;;;;5073692;28;20232;-85
2023/06/22 04:15:47;;;;;;;10.20;7.60;;;20.20;1.00;;;;;;5067867;28;20285;-85
2023/06/22 04:21:48;;;;;;;11.50;8.60;;;20.30;1.00;;;;;;5056291;28;20197;-86
2023/06/22 04:24:17;;;;;;;10.30;7.43;;;20.50;1.00;;;;;;5022757;28;20666;-86
2023/06/22 04:26:46;;;;;;;9.67;7.90;;;20.70;1.00;;;;;;5056275;28;20177;-85
2023/06/22 04:29:13;;;;;;;12.37;8.20;;;20.80;1.00;;;;;;5059164;28;20268;-86
2023/06/22 04:31:39;;;;;;;8.77;7.17;;;20.90;1.00;;;;;;5042623;28;20778;-87
2023/06/22 04:34:06;;;;;;;11.87;8.93;;;20.90;1.00;;;;;;5054280;28;20181;-86
2023/06/22 04:36:40;;;;;;;14.43;9.87;;;21.10;1.00;;;;;;5071734;28;20200;-86
2023/06/22 04:39:09;;;;;;;15.47;10.17;;;21.10;1.00;;;;;;5069744;28;20614;-87
2023/06/22 04:41:44;;;;;;;13.17;9.77;;;21.20;1.00;;;;;;5058139;28;20216;-87
2023/06/22 04:44:24;;;;;;;12.10;9.70;;;21.20;1.00;;;;;;5038148;28;20514;-83
2023/06/22 04:46:59;;;;;;;13.07;10.70;;;21.10;1.00;;;;;;5054546;28;20180;-86
2023/06/22 04:49:32;;;;;;;13.60;10.50;;;21.00;1.00;;;;;;5054610;28;20162;-86
2023/06/22 04:52:08;;;;;;;14.67;10.50;;;21.00;1.00;;;;;;5054451;28;20203;-85
2023/06/22 04:54:40;;;;;;;13.23;10.17;;;21.00;1.00;;;;;;5055722;28;20201;-87
2023/06/22 04:57:10;;;;;;;16.43;10.23;;;21.10;1.00;;;;;;5054585;28;20256;-86
2023/06/22 04:59:38;;;;;;;11.80;10.60;;;21.20;1.00;;;;;;5054937;28;20177;-86
2023/06/22 05:02:08;;;;;;;11.97;9.40;;;21.20;1.00;;;;;;5054919;28;20184;-86
2023/06/22 05:04:38;;;;;;;14.03;10.40;;;21.20;1.00;;;;;;5039480;28;20182;-84
2023/06/22 05:07:04;;;;;;;13.60;10.30;;;21.20;1.00;;;;;;5059469;28;20166;-84
2023/06/22 05:09:30;;;;;;;13.10;10.70;;;21.20;1.00;;;;;;5074016;28;20159;-82
2023/06/22 05:11:56;;;;;;;13.63;10.17;;;21.30;1.00;;;;;;5078533;28;20176;-79
2023/06/22 05:14:22;;;;;;;12.93;10.60;;;21.30;1.00;;;;;;5078208;28;20189;-82
2023/06/22 05:16:49;;;;;;;15.87;10.57;;;21.30;1.00;;;;;;5080553;28;20181;-81
2023/06/22 05:19:14;;;;;;;13.40;10.40;;;21.40;1.00;;;;;;5062413;28;20192;-82
2023/06/22 05:21:43;;;;;;;16.10;10.70;;;21.40;1.00;;;;;;5060656;28;20238;-82
2023/06/22 05:24:10;;;;;;;13.90;11.33;;;21.40;1.00;;;;;;5065818;28;20177;-86
2023/06/22 05:26:36;;;;;;;14.07;11.00;;;21.40;1.00;;;;;;5058923;28;20633;-85
2023/06/22 05:29:03;;;;;;;18.03;11.77;;;21.40;1.00;;;;;;5044813;28;20173;-86
2023/06/22 05:31:29;;;;;;;15.77;11.30;;;21.40;1.00;;;;;;5063153;28;20177;-84
2023/06/22 05:33:55;;;;;;;17.57;12.03;;;21.20;1.00;;;;;;5059135;28;20230;-85
2023/06/22 05:36:25;;;;;;;15.03;11.50;;;21.10;1.00;;;;;;5044207;28;20748;-87
2023/06/22 05:38:58;;;;;;;13.13;11.63;;;21.20;1.00;;;;;;5061154;28;20176;-84
2023/06/22 05:41:25;;;;;;;16.90;12.20;;;21.20;1.00;;;;;;5061225;28;20179;-86
2023/06/22 05:43:51;;;;;;;15.20;11.93;;;21.10;1.00;;;;;;5043187;28;20172;-87
2023/06/22 05:46:18;;;;;;;14.57;12.50;;;21.00;1.00;;;;;;5060714;28;20183;-86
2023/06/22 05:48:44;;;;;;;14.90;12.97;;;21.00;2.80;;;;;;5042719;28;20173;-84
2023/06/22 05:51:10;;;;;;;14.37;12.87;;;21.00;3.50;;;;;;5059780;28;20239;-92
2023/06/22 05:53:35;;;;;;;14.47;12.97;;;21.00;7.50;;;;;;5045734;28;20617;-87
2023/06/22 05:56:01;;;;;;;15.53;12.67;;;20.90;11.40;;;;;;5046414;28;20291;-88
2023/06/22 05:58:26;;;;;;;17.97;11.93;;;20.90;16.40;;;;;;5064194;28;20201;-84
2023/06/22 06:00:52;;;;;;;14.10;11.20;;;20.90;14.40;;;;;;5041172;28;20173;-83
2023/06/22 06:03:19;;;;;;;17.60;11.67;;;20.90;16.30;;;;;;5042463;28;20200;-84
2023/06/22 06:05:45;;;;;;;18.93;11.20;;;21.00;15.70;;;;;;5057856;28;20246;-81
2023/06/22 06:08:12;;;;;;;19.57;11.60;;;21.20;9.50;;;;;;5056859;28;20679;-85
2023/06/22 06:10:37;;;;;;;14.40;12.20;;;21.20;12.20;;;;;;5057061;28;20168;-83
2023/06/22 06:13:04;;;;;;;19.93;12.83;;;21.10;11.60;;;;;;5058227;28;20176;-87
2023/06/22 06:15:32;;;;;;;20.27;13.50;;;20.90;14.50;;;;;;5041908;28;20295;-87
2023/06/22 06:17:58;;;;;;;20.27;14.27;;;20.70;19.60;;;;;;5060194;28;20165;-87
2023/06/22 06:20:25;;;;;;;24.70;14.70;;;20.50;27.50;;;;;;5061801;28;20186;-80
2023/06/22 06:22:51;;;;;;;21.87;15.40;;;20.40;34.60;;;;;;5076936;28;20163;-85
2023/06/22 06:25:19;;;;;;;22.07;15.33;;;20.40;38.50;;;;;;5078957;28;20167;-81
2023/06/22 06:27:46;;;;;;;19.73;15.67;;;20.40;38.70;;;;;;5077771;28;20144;-80
2023/06/22 06:30:13;;;;;;;18.03;14.97;;;20.40;40.10;;;;;;5073929;28;20338;-77
2023/06/22 06:32:41;;;;;;;19.93;14.00;;;20.30;36.90;;;;;;5073618;28;20165;-80
2023/06/22 06:35:07;;;;;;;20.03;14.90;;;20.20;37.90;;;;;;5075136;28;20195;-89
2023/06/22 06:37:40;;;;;;;16.83;13.93;;;20.20;40.80;;;;;;5057126;28;20245;-83
2023/06/22 06:40:23;;;;;;;20.00;15.50;;;20.20;43.00;;;;;;5054496;28;20183;-80
2023/06/22 06:42:49;;;;;;;18.47;15.17;;;20.20;43.70;;;;;;5070772;28;20203;-82
2023/06/22 06:45:25;;;;;;;20.87;15.83;;;20.30;44.80;;;;;;5051997;28;20176;-84
2023/06/22 06:47:56;;;;;;;17.50;15.50;;;20.40;42.40;;;;;;5065971;28;20236;-87
2023/06/22 06:50:23;;;;;;;21.43;15.60;;;20.40;37.10;;;;;;5067270;28;20169;-81
2023/06/22 06:52:50;;;;;;;18.77;15.17;;;20.40;35.60;;;;;;5067825;28;20227;-82
2023/06/22 06:55:16;;;;;;;21.07;15.10;;;20.40;40.60;;;;;;5064483;28;20207;-81
2023/06/22 06:57:47;;;;;;;20.43;14.87;;;20.50;37.80;;;;;;5058174;28;20171;-81
2023/06/22 07:00:15;;;;;;;22.80;15.80;;;20.50;38.70;;;;;;5058270;28;20587;-86
2023/06/22 07:02:45;;;;;;;23.93;16.63;;;20.50;37.20;;;;;;5040666;28;20176;-83
2023/06/22 07:05:14;;;;;;;24.47;15.47;;;20.50;39.50;;;;;;5057133;28;20164;-82
2023/06/22 07:07:41;;;;;;;21.23;16.10;;;20.60;37.70;;;;;;5064208;28;20187;-82
2023/06/22 07:10:11;;;;;;;23.37;16.57;;;20.60;38.30;;;;;;5060362;28;20168;-83
2023/06/22 07:12:40;;;;;;;21.77;15.87;;;20.60;34.20;;;;;;5049164;28;20179;-82
2023/06/22 07:15:09;;;;;;;20.00;17.30;;;20.70;35.20;;;;;;5069898;28;20196;-84
2023/06/22 07:17:57;;;;;;;19.90;16.40;;;20.70;31.50;;;;;;5057280;28;20244;-88
2023/06/22 07:20:23;;;;;;;19.43;15.67;;;20.70;29.60;;;;;;5039470;28;20172;-81
2023/06/22 07:22:49;;;;;;;19.40;16.53;;;20.80;31.40;;;;;;5057118;28;20164;-85
2023/06/22 07:25:17;;;;;;;19.40;16.23;;;20.80;29.30;;;;;;5056009;28;20167;-84
2023/06/22 07:27:58;;;;;;;20.07;15.83;;;20.90;27.90;;;;;;5055328;28;20193;-87
2023/06/22 07:30:24;;;;;;;20.03;15.53;;;20.90;23.40;;;;;;5057994;28;20236;-87
2023/06/22 07:32:50;;;;;;;20.20;16.10;;;20.90;24.90;;;;;;5078150;28;20183;-86
2023/06/22 07:35:18;;;;;;;19.70;16.13;;;20.90;23.80;;;;;;5075012;28;20264;-80
2023/06/22 07:37:45;;;;;;;22.10;16.20;;;21.00;25.90;;;;;;5065043;28;20188;-80
2023/06/22 07:40:17;;;;;;;26.73;16.60;;;21.10;26.20;;;;;;5045999;28;20173;-90
2023/06/22 07:42:56;;;;;;;19.63;15.80;;;21.10;23.90;;;;;;5055409;28;20191;-80
2023/06/22 07:45:52;;;;;;;21.70;16.70;;;21.20;22.80;;;;;;5055078;28;20207;-81
2023/06/22 07:48:36;;;;;;;17.90;16.10;;;21.20;12.30;;;;;;5055173;28;20160;-82
2023/06/22 07:51:08;;;;;;;18.67;15.07;;;21.20;6.80;;;;;;5056112;28;20160;-83
2023/06/22 07:53:36;;;;;;;18.57;15.23;;;21.20;1.60;;;;;;5060787;28;20188;-90
2023/06/22 07:56:06;;;;;;;18.00;14.40;;;21.10;4.20;;;;;;5061991;28;20276;-86
2023/06/22 07:58:33;;;;;;;22.37;14.77;;;21.10;5.30;;;;;;5066474;28;20156;-85
2023/06/22 08:00:59;;;;;;;18.90;15.40;;;21.20;7.50;;;;;;5073575;28;20166;-86
2023/06/22 08:03:26;;;;;;;19.33;14.80;;;21.20;1.00;;;;;;5076869;28;20165;-84
2023/06/22 08:05:52;;;;;;;19.60;15.67;;;21.20;1.00;;;;;;5059381;28;20188;-86
2023/06/22 08:08:17;;;;;;;17.07;15.27;;;21.20;1.00;;;;;;5059150;28;20241;-82
2023/06/22 08:10:43;;;;;;;19.87;14.60;;;21.30;1.00;;;;;;5076984;28;20208;-83
2023/06/22 08:13:10;;;;;;;17.37;15.50;;;21.40;1.00;;;;;;5075924;28;20561;-86
2023/06/22 08:15:36;;;;;;;17.17;14.27;;;21.50;1.00;;;;;;5058209;28;20217;-81
2023/06/22 08:18:02;;;;;;;17.37;14.40;;;21.50;1.00;;;;;;5072601;28;20201;-81
2023/06/22 08:20:28;;;;;;;15.10;13.53;;;21.60;1.00;;;;;;5067678;28;20165;-83
2023/06/22 08:22:55;;;;;;;16.77;14.17;;;21.40;1.00;;;;;;5047976;28;20218;-83
2023/06/22 08:25:21;;;;;;;20.33;14.47;;;21.30;1.00;;;;;;5047182;28;20176;-84
2023/06/22 08:27:48;;;;;;;17.13;14.47;;;21.30;1.00;;;;;;5064962;28;20156;-82
2023/06/22 08:30:14;;;;;;;18.93;14.57;;;21.30;1.20;;;;;;5065364;28;20613;-81
2023/06/22 08:32:39;;;;;;;18.60;14.30;;;21.30;2.60;;;;;;5048321;28;20220;-83
2023/06/22 08:35:08;;;;;;;16.33;14.53;;;21.30;3.50;;;;;;5063010;28;20211;-81
2023/06/22 08:37:35;;;;;;;21.97;15.00;;;21.30;4.00;;;;;;5047297;28;20279;-80
2023/06/22 08:40:09;;;;;;;18.90;16.20;;;21.20;5.00;;;;;;5067339;28;20192;-85
2023/06/22 08:42:36;;;;;;;18.60;14.93;;;21.20;5.50;;;;;;5062963;28;20199;-90
2023/06/22 08:45:08;;;;;;;20.93;15.10;;;21.20;6.70;;;;;;5059166;28;20198;-83
2023/06/22 08:47:37;;;;;;;19.87;15.83;;;21.20;8.60;;;;;;5060799;28;20158;-89
2023/06/22 08:50:07;;;;;;;17.77;15.10;;;21.20;10.30;;;;;;5046106;28;20172;-83
2023/06/22 08:52:33;;;;;;;17.67;15.87;;;21.20;10.90;;;;;;5063660;28;20169;-82
2023/06/22 08:55:00;;;;;;;18.93;15.60;;;21.10;6.90;;;;;;5061537;28;20217;-90
2023/06/22 08:58:12;;;;;;;18.97;15.33;;;21.20;11.50;;;;;;5059827;28;20203;-86
2023/06/22 09:00:39;;;;;;;19.90;16.20;;;21.20;14.10;;;;;;5059988;28;20158;-86
2023/06/22 09:03:07;;;;;;;19.40;15.90;;;21.20;13.30;;;;;;5041849;28;20204;-87
2023/06/22 09:05:46;;;;;;;17.87;15.53;;;21.10;12.80;;;;;;5041466;28;20165;-81
2023/06/22 09:08:12;;;;;;;18.40;15.63;;;21.10;16.40;;;;;;5041204;28;20297;-82
2023/06/22 09:10:38;;;;;;;20.90;16.03;;;21.10;18.70;;;;;;5041255;28;20172;-91
2023/06/22 09:13:04;;;;;;;22.27;15.73;;;21.10;15.90;;;;;;5063067;28;20176;-87
2023/06/22 09:15:29;;;;;;;18.07;16.27;;;21.10;20.60;;;;;;5063373;28;20309;-89
2023/06/22 09:17:57;;;;;;;20.00;15.43;;;21.20;18.70;;;;;;5041133;28;20176;-87
2023/06/22 09:20:23;;;;;;;16.17;14.43;;;21.20;21.60;;;;;;5039967;28;20263;-82
2023/06/22 09:22:48;;;;;;;18.53;14.73;;;21.20;17.90;;;;;;5062291;28;20583;-81
2023/06/22 09:25:14;;;;;;;17.50;15.63;;;21.20;17.80;;;;;;5069366;28;20248;-81
2023/06/22 09:27:40;;;;;;;16.80;15.10;;;21.10;19.70;;;;;;5065793;28;20189;-89
2023/06/22 09:30:06;;;;;;;25.60;15.40;;;21.10;20.60;;;;;;5043000;28;20202;-85
2023/06/22 09:32:33;;;;;;;16.60;15.00;;;21.10;19.00;;;;;;5066357;28;20172;-81
2023/06/22 09:35:05;;;;;;;20.97;14.67;;;21.10;20.50;;;;;;5063147;28;20202;-82
2023/06/22 09:37:31;;;;;;;16.77;15.00;;;21.10;24.30;;;;;;5063518;28;20197;-82
2023/06/22 09:39:57;;;;;;;20.40;16.47;;;21.10;28.40;;;;;;5064273;28;20172;-85
2023/06/22 09:42:23;;;;;;;21.10;16.83;;;21.20;36.80;;;;;;5063334;28;20648;-86
2023/06/22 09:44:49;;;;;;;17.80;15.57;;;21.30;34.60;;;;;;5044645;28;20173;-85
2023/06/22 09:47:14;;;;;;;15.67;13.80;;;21.30;29.40;;;;;;5043044;28;20637;-91
2023/06/22 09:49:40;;;;;;;16.40;14.60;;;21.30;25.80;;;;;;5058871;28;20159;-89
2023/06/22 09:52:06;;;;;;;17.50;14.47;;;21.20;21.70;;;;;;5040566;28;20532;-84
2023/06/22 09:54:32;;;;;;;19.03;16.23;;;21.30;33.30;;;;;;5064421;28;20185;-81
2023/06/22 09:56:59;;;;;;;20.23;16.73;;;21.20;50.30;;;;;;5042341;28;20247;-86
2023/06/22 09:59:25;;;;;;;17.80;16.03;;;21.10;56.50;;;;;;5063576;28;20194;-84
2023/06/22 10:01:50;;;;;;;18.87;16.70;;;21.20;52.20;;;;;;5068168;28;20211;-82
2023/06/22 10:04:16;;;;;;;20.70;18.23;;;21.20;54.60;;;;;;5049645;28;20200;-83
2023/06/22 10:06:42;;;;;;;17.80;15.97;;;21.10;59.00;;;;;;5051762;28;20193;-86
2023/06/22 10:09:10;;;;;;;20.73;17.30;;;20.90;57.70;;;;;;5060402;28;20632;-85
2023/06/22 10:11:36;;;;;;;19.03;16.77;;;20.50;81.50;;;;;;5041855;28;20206;-92
2023/06/22 10:14:04;;;;;;;18.20;16.30;;;20.40;86.50;;;;;;5041095;28;20177;-84
2023/06/22 10:16:35;;;;;;;18.63;16.83;;;20.00;90.50;;;;;;5041101;28;20239;-91
2023/06/22 10:19:01;;;;;;;19.47;17.20;;;19.70;96.60;;;;;;5058665;28;20217;-90
2023/06/22 10:21:29;;;;;;;20.00;17.33;;;19.50;99.90;;;;;;5041309;28;20577;-91
2023/06/22 10:23:55;;;;;;;18.80;16.47;;;19.30;99.90;;;;;;5059241;28;20536;-84
2023/06/22 10:26:21;;;;;;;16.40;14.70;;;19.10;99.90;;;;;;5059422;28;20209;-90
2023/06/22 10:28:47;;;;;;;15.73;14.07;;;18.80;99.90;;;;;;5058747;28;20256;-91
2023/06/22 10:31:13;;;;;;;17.37;15.67;;;18.70;99.90;;;;;;5065913;28;20154;-82
2023/06/22 10:33:47;;;;;;;19.70;17.63;;;18.60;99.90;;;;;;5074129;28;20203;-83
2023/06/22 10:36:14;;;;;;;19.30;17.27;;;18.60;99.90;;;;;;5051979;28;20205;-83
2023/06/22 10:38:43;;;;;;;21.17;18.73;;;18.60;99.90;;;;;;5069413;28;20214;-90
2023/06/22 10:41:09;;;;;;;20.40;17.60;;;18.70;99.90;;;;;;5042313;28;20235;-88
2023/06/22 10:43:37;;;;;;;20.43;18.33;;;18.60;99.90;;;;;;5044926;28;20181;-91
2023/06/22 10:46:54;;;;;;;21.20;18.90;;;18.50;99.90;;;;;;5063593;28;20168;-91
2023/06/22 10:49:19;;;;;;;25.60;20.03;;;18.40;99.90;;;;;;5060896;28;20199;-81
2023/06/22 10:51:45;;;;;;;24.80;21.23;;;18.40;99.90;;;;;;5040209;28;20268;-82
2023/06/22 10:54:13;;;;;;;23.57;21.30;;;18.50;99.90;;;;;;5058152;28;20676;-80
2023/06/22 10:56:40;;;;;;;24.90;22.27;;;18.50;99.90;;;;;;5060749;28;20188;-80
2023/06/22 10:59:06;;;;;;;26.90;23.83;;;18.60;99.90;;;;;;5055634;28;20184;-81
2023/06/22 11:01:33;;;;;;;27.70;24.90;;;18.60;99.90;;;;;;5066710;28;20178;-82
2023/06/22 11:03:59;;;;;;;27.43;24.73;;;18.60;99.90;;;;;;5065851;28;20196;-85
2023/06/22 11:06:27;;;;;;;28.70;25.93;;;18.60;99.90;;;;;;5062360;28;20172;-82
2023/06/22 11:08:56;;;;;;;29.03;26.13;;;18.70;99.90;;;;;;5043607;28;20172;-82
2023/06/22 11:11:22;;;;;;;29.60;26.47;;;18.70;99.90;;;;;;5066472;28;20248;-80
2023/06/22 11:13:48;;;;;;;30.20;27.00;;;18.80;99.90;;;;;;5065365;28;20231;-81
2023/06/22 11:16:14;;;;;;;30.50;27.03;;;18.80;99.90;;;;;;5063020;28;20197;-82
2023/06/22 11:18:41;;;;;;;29.80;26.47;;;18.80;99.90;;;;;;5061183;28;20244;-81
2023/06/22 11:21:06;;;;;;;29.33;26.43;;;18.80;99.90;;;;;;5059504;28;20833;-89
2023/06/22 11:23:33;;;;;;;29.83;26.73;;;18.80;99.90;;;;;;5041072;28;20180;-82
2023/06/22 11:25:59;;;;;;;29.07;25.97;;;18.90;99.90;;;;;;5056535;28;20236;-81
2023/06/22 11:28:27;;;;;;;30.23;27.23;;;18.80;99.90;;;;;;5056309;28;20173;-84
2023/06/22 11:30:56;;;;;;;28.20;24.07;;;18.80;99.90;;;;;;5056226;28;20165;-82
2023/06/22 11:33:22;;;;;;;28.03;25.13;;;18.80;99.90;;;;;;5057589;28;20693;-80
2023/06/22 11:35:51;;;;;;;27.80;24.90;;;18.80;99.90;;;;;;5039122;28;20325;-83
2023/06/22 11:38:19;;;;;;;22.30;20.20;;;18.80;99.90;;;;;;5040032;28;20169;-82
2023/06/22 11:40:45;;;;;;;22.33;20.03;;;18.60;99.90;;;;;;5060981;28;20255;-81
2023/06/22 11:43:17;;;;;;;22.30;19.90;;;18.60;99.90;;;;;;5043816;28;20215;-79
2023/06/22 11:45:47;;;;;;;23.63;21.30;;;18.70;99.90;;;;;;5058031;28;20169;-82
2023/06/22 11:48:12;;;;;;;21.97;19.77;;;18.60;99.90;;;;;;5058018;28;20172;-80
2023/06/22 11:50:40;;;;;;;23.23;20.93;;;18.60;99.90;;;;;;5056846;28;20748;-82
2023/06/22 11:53:07;;;;;;;24.03;21.50;;;18.70;99.90;;;;;;5038849;28;20266;-80
2023/06/22 11:55:35;;;;;;;24.43;22.00;;;18.70;99.90;;;;;;5059438;28;20224;-79
2023/06/22 11:58:03;;;;;;;24.07;21.87;;;18.70;99.90;;;;;;5039774;28;20161;-80
2023/06/22 12:00:30;;;;;;;24.40;21.90;;;18.70;99.90;;;;;;5057359;28;20158;-80
2023/06/22 12:02:56;;;;;;;26.07;23.47;;;18.90;99.90;;;;;;5040101;28;20188;-80
2023/06/22 12:05:23;;;;;;;25.33;22.83;;;18.90;99.90;;;;;;5056570;28;20186;-82
2023/06/22 12:07:49;;;;;;;22.20;19.90;;;18.90;99.90;;;;;;5056626;28;20150;-87
2023/06/22 12:10:18;;;;;;;23.40;21.10;;;18.90;99.90;;;;;;5038842;28;20177;-81
2023/06/22 12:12:47;;;;;;;25.03;22.53;;;18.80;99.90;;;;;;5038622;28;20176;-82
2023/06/22 12:15:16;;;;;;;24.50;21.97;;;18.80;99.90;;;;;;5038525;28;20586;-81
2023/06/22 12:17:51;;;;;;;24.20;21.90;;;18.80;99.90;;;;;;5040311;28;20647;-81
2023/06/22 12:20:21;;;;;;;22.53;20.33;;;18.80;99.90;;;;;;5038598;28;20184;-80
2023/06/22 12:22:47;;;;;;;24.63;22.17;;;18.80;99.90;;;;;;5039405;28;20175;-81
2023/06/22 12:25:14;;;;;;;25.13;22.53;;;18.80;99.90;;;;;;5059433;28;20179;-81
2023/06/22 12:27:40;;;;;;;24.50;22.03;;;18.80;99.90;;;;;;5042287;28;20256;-84
2023/06/22 12:30:09;;;;;;;23.90;21.33;;;18.70;99.90;;;;;;5036627;28;20208;-82
2023/06/22 12:32:35;;;;;;;27.23;24.43;;;18.80;99.90;;;;;;5040970;28;20180;-87
2023/06/22 12:35:00;;;;;;;27.73;24.83;;;18.80;99.90;;;;;;5041330;28;20622;-90
2023/06/22 12:37:27;;;;;;;28.03;25.17;;;18.80;99.90;;;;;;5023728;28;20178;-83
2023/06/22 12:40:00;;;;;;;29.10;26.10;;;18.80;99.90;;;;;;5042226;28;20182;-82
2023/06/22 12:42:28;;;;;;;28.00;25.00;;;18.80;99.90;;;;;;5042644;28;20195;-82
2023/06/22 12:44:55;;;;;;;30.80;27.60;;;18.90;99.90;;;;;;5026588;28;20657;-85
2023/06/22 12:47:24;;;;;;;31.40;28.30;;;18.90;99.90;;;;;;5044485;28;20180;-91
2023/06/22 12:49:50;;;;;;;32.83;29.60;;;18.80;99.90;;;;;;5042271;28;20166;-91
2023/06/22 12:52:15;;;;;;;32.73;29.33;;;18.80;99.90;;;;;;5042504;28;20180;-86
2023/06/22 12:54:56;;;;;;;33.63;29.87;;;18.90;99.90;;;;;;5026912;28;20686;-89
2023/06/22 12:57:25;;;;;;;35.33;30.40;;;18.90;99.90;;;;;;5025257;28;20204;-93